createdAt,value
2023-02-04T02:13:52.408Z,26.19
2023-02-04T02:14:52.501Z,26.19
2023-02-04T02:15:52.547Z,26.19
2023-02-04T02:16:52.729Z,26.18
2023-02-04T02:17:52.632Z,26.19
2023-02-04T02:18:52.709Z,26.20
2023-02-04T02:19:52.794Z,26.23
2023-02-04T02:20:52.862Z,26.23
2023-02-04T02:21:52.942Z,26.24
2023-02-04T02:22:53.006Z,26.24
2023-02-04T02:23:53.032Z,26.22
2023-02-04T02:24:53.103Z,26.21
2023-02-04T02:25:53.188Z,26.22
2023-02-04T02:26:53.205Z,26.22
2023-02-04T02:27:53.328Z,26.21
2023-02-04T02:28:53.346Z,26.19
2023-02-04T02:29:53.384Z,26.19
2023-02-04T02:30:53.603Z,26.20
2023-02-04T02:31:53.558Z,26.19
2023-02-04T02:32:53.603Z,26.18
2023-02-04T02:33:53.635Z,26.21
2023-02-04T02:34:53.722Z,26.21
2023-02-04T02:35:53.770Z,26.22
2023-02-04T02:36:53.825Z,26.20
2023-02-04T02:37:53.920Z,26.19
2023-02-04T02:38:53.958Z,26.20
2023-02-04T02:39:54.050Z,26.22
2023-02-04T02:40:54.094Z,26.19
2023-02-04T02:41:54.140Z,26.21
2023-02-04T02:42:54.266Z,26.21
2023-02-04T02:43:54.267Z,26.19
2023-02-04T02:44:54.315Z,26.22
2023-02-04T02:45:54.457Z,26.20
2023-02-04T02:46:54.442Z,26.22
2023-02-04T02:47:54.496Z,26.21
2023-02-04T02:48:54.557Z,26.21
2023-02-04T02:49:54.626Z,26.19
2023-02-04T02:50:54.663Z,26.22
2023-02-04T02:51:54.736Z,26.20
2023-02-04T02:52:54.847Z,26.21
2023-02-04T02:53:54.889Z,26.20
2023-02-04T02:54:54.888Z,26.21
2023-02-04T02:55:54.953Z,26.19
2023-02-04T02:56:55.014Z,26.20
2023-02-04T02:57:55.103Z,26.20
2023-02-04T02:58:55.145Z,26.20
2023-02-04T05:05:02.539Z,26.32
2023-02-04T05:06:02.453Z,26.32
2023-02-04T05:07:02.500Z,26.31
2023-02-04T05:08:02.586Z,26.32
2023-02-04T05:09:02.666Z,26.34
2023-02-04T05:10:02.708Z,26.34
2023-02-04T05:11:02.746Z,26.34
2023-02-04T05:12:02.834Z,26.32
2023-02-04T05:13:02.855Z,26.36
2023-02-04T05:14:02.930Z,26.35
2023-02-04T05:15:03.013Z,26.36
2023-02-04T05:16:03.111Z,26.38
2023-02-04T05:17:03.123Z,26.38
2023-02-04T05:18:03.192Z,26.38
2023-02-04T05:19:03.244Z,26.37
2023-02-04T05:20:03.310Z,26.37
2023-02-04T05:21:03.354Z,26.38
2023-02-04T05:22:03.531Z,26.38
2023-02-04T05:23:05.457Z,26.40
2023-02-04T05:24:03.574Z,26.39
2023-02-04T05:25:03.614Z,26.37
2023-02-04T05:26:03.712Z,26.38
2023-02-04T05:27:03.755Z,26.40
2023-02-04T05:28:03.839Z,26.38
2023-02-04T05:29:03.866Z,26.39
2023-02-04T05:30:03.950Z,26.40
2023-02-04T05:31:04.589Z,26.37
2023-02-04T05:32:04.131Z,26.37
2023-02-04T05:33:04.246Z,26.38
2023-02-04T05:34:04.166Z,26.37
2023-02-04T05:35:05.557Z,26.36
2023-02-04T05:36:04.275Z,26.37
2023-02-04T05:37:04.325Z,26.36
2023-02-04T05:38:04.417Z,26.36
2023-02-04T05:39:04.434Z,26.37
2023-02-04T05:40:04.461Z,26.36
2023-02-04T05:41:04.523Z,26.38
2023-02-04T05:42:04.658Z,26.38
2023-02-04T05:43:04.671Z,26.40
2023-02-04T05:44:04.739Z,26.39
2023-02-04T05:45:04.766Z,26.39
2023-02-04T05:46:04.958Z,26.38
2023-02-04T05:47:04.886Z,26.40
2023-02-04T05:48:04.982Z,26.40
2023-02-04T05:49:05.022Z,26.41
2023-02-04T05:50:05.116Z,26.41
2023-02-04T05:51:05.113Z,26.40
2023-02-04T05:52:05.201Z,26.41
2023-02-04T05:53:05.313Z,26.41
2023-02-04T05:54:05.334Z,26.40
2023-02-04T05:55:05.379Z,26.41
2023-02-04T05:56:05.437Z,26.42
2023-02-04T05:57:05.506Z,26.41
2023-02-04T05:58:05.559Z,26.40
2023-02-04T05:59:06.493Z,26.40
2023-02-04T06:00:05.687Z,26.42
2023-02-04T06:01:05.740Z,26.40
2023-02-04T06:02:05.786Z,26.40
2023-02-04T06:03:05.881Z,26.40
2023-02-04T06:04:05.959Z,26.41
2023-02-04T06:05:05.987Z,26.39
2023-02-04T06:06:06.062Z,26.40
2023-02-04T06:07:06.129Z,26.39
2023-02-04T06:08:06.174Z,26.38
2023-02-04T06:09:06.194Z,26.39
2023-02-04T06:10:06.291Z,26.38
2023-02-04T06:11:06.346Z,26.38
2023-02-04T06:12:06.402Z,26.37
2023-02-04T06:13:06.503Z,26.37
2023-02-04T06:14:06.517Z,26.39
2023-02-04T06:15:06.557Z,26.38
2023-02-04T06:16:06.614Z,26.39
2023-02-04T06:17:06.718Z,26.37
2023-02-04T06:18:06.741Z,26.36
2023-02-04T06:19:06.805Z,26.37
2023-02-04T06:20:06.853Z,26.35
2023-02-04T06:21:06.932Z,26.37
2023-02-04T06:22:07.009Z,26.38
2023-02-04T06:23:07.042Z,26.37
2023-02-04T06:24:07.089Z,26.36
2023-02-04T06:25:07.185Z,26.35
2023-02-04T06:26:07.237Z,26.35
2023-02-04T06:27:07.274Z,26.36
2023-02-04T06:28:07.414Z,26.34
2023-02-04T06:29:07.441Z,26.35
2023-02-04T06:30:07.498Z,26.33
2023-02-04T06:31:07.629Z,26.33
2023-02-04T06:32:07.613Z,26.33
2023-02-04T06:33:07.677Z,26.31
2023-02-04T06:34:07.754Z,26.33
2023-02-04T06:35:07.776Z,26.33
2023-02-04T06:36:07.853Z,26.32
2023-02-04T06:37:07.894Z,26.30
2023-02-04T06:38:07.985Z,26.30
2023-02-04T06:39:08.023Z,26.29
2023-02-04T06:40:08.094Z,26.31
2023-02-04T06:41:08.160Z,26.31
2023-02-04T06:42:08.212Z,26.30
2023-02-04T06:43:08.322Z,26.29
2023-02-04T06:44:08.329Z,26.29
2023-02-04T06:45:08.442Z,26.27
2023-02-04T06:46:08.495Z,26.28
2023-02-04T06:47:08.528Z,26.27
2023-02-04T06:48:08.611Z,26.27
2023-02-04T06:49:08.662Z,26.28
2023-02-04T06:50:08.725Z,26.25
2023-02-04T06:51:08.769Z,26.24
2023-02-04T06:52:08.839Z,26.26
2023-02-04T06:53:08.914Z,26.27
2023-02-04T06:54:08.966Z,26.27
2023-02-04T06:55:09.040Z,26.27
2023-02-04T06:56:09.113Z,26.27
2023-02-04T06:57:09.139Z,26.28
2023-02-04T06:58:09.222Z,26.28
2023-02-04T06:59:09.270Z,26.29
2023-02-04T07:00:09.307Z,26.29
2023-02-04T07:01:09.384Z,26.28
2023-02-04T07:02:09.442Z,26.24
2023-02-04T07:03:09.533Z,26.27
2023-02-04T07:04:09.539Z,26.26
2023-02-04T07:05:09.610Z,26.26
2023-02-04T07:06:09.687Z,26.26
2023-02-04T07:07:09.748Z,26.27
2023-02-04T07:08:09.805Z,26.26
2023-02-04T07:09:09.869Z,26.25
2023-02-04T07:10:09.920Z,26.23
2023-02-04T07:11:09.971Z,26.23
2023-02-04T07:12:09.994Z,26.23
2023-02-04T07:13:10.113Z,26.24
2023-02-04T07:14:10.161Z,26.21
2023-02-04T07:15:10.205Z,26.21
2023-02-04T07:16:10.316Z,26.22
2023-02-04T07:17:10.314Z,26.22
2023-02-04T07:18:10.662Z,26.23
2023-02-04T07:19:10.438Z,26.25
2023-02-04T07:20:10.503Z,26.25
2023-02-04T07:21:10.609Z,26.26
2023-02-04T07:22:10.613Z,26.22
2023-02-04T07:23:10.701Z,26.21
2023-02-04T07:24:10.758Z,26.20
2023-02-04T07:25:10.799Z,26.20
2023-02-04T07:26:10.847Z,26.18
2023-02-04T07:27:10.936Z,26.17
2023-02-04T07:28:11.031Z,26.20
2023-02-04T07:29:17.524Z,26.20
2023-02-04T07:30:12.034Z,26.20
2023-02-04T07:31:11.104Z,26.19
2023-02-04T07:36:10.992Z,26.15
2023-02-04T07:37:10.997Z,26.13
2023-02-04T07:38:11.046Z,26.13
2023-02-04T07:39:11.110Z,26.13
2023-02-04T07:40:11.165Z,26.12
2023-02-04T07:41:11.252Z,26.11
2023-02-04T07:42:11.298Z,26.10
2023-02-04T07:43:11.328Z,26.10
2023-02-04T07:44:11.409Z,26.10
2023-02-04T07:45:11.480Z,26.10
2023-02-04T07:46:11.561Z,26.10
2023-02-04T07:47:11.568Z,26.12
2023-02-04T07:48:11.684Z,26.11
2023-02-04T07:51:11.822Z,26.10
2023-02-04T07:52:11.875Z,26.09
2023-02-04T07:53:11.931Z,26.10
2023-02-04T07:54:12.018Z,26.09
2023-02-04T08:01:12.451Z,26.08
2023-02-04T08:02:12.482Z,26.08
2023-02-04T08:03:12.562Z,26.07
2023-02-04T08:04:12.621Z,26.08
2023-02-04T08:05:12.662Z,26.09
2023-02-04T08:06:12.701Z,26.07
2023-02-04T08:07:12.789Z,26.09
2023-02-04T08:08:12.826Z,26.07
2023-02-04T08:09:12.889Z,26.09
2023-02-04T08:10:12.982Z,26.08
2023-02-04T08:11:13.029Z,26.06
2023-02-04T08:12:13.093Z,26.06
2023-02-04T08:13:13.174Z,26.05
2023-02-04T08:14:13.207Z,26.07
2023-02-04T08:15:13.251Z,26.09
2023-02-04T08:16:13.405Z,26.07
2023-02-04T08:17:13.410Z,26.07
2023-02-04T08:18:13.438Z,26.09
2023-02-04T08:19:13.481Z,26.10
2023-02-04T08:20:13.587Z,26.10
2023-02-04T08:21:13.574Z,26.10
2023-02-04T08:22:13.672Z,26.07
2023-02-04T08:23:13.713Z,26.09
2023-02-04T08:24:13.766Z,26.08
2023-02-04T08:25:13.842Z,26.07
2023-02-04T08:26:13.891Z,26.08
2023-02-04T08:27:13.932Z,26.07
2023-02-04T08:28:14.039Z,26.08
2023-02-04T08:29:14.055Z,26.06
2023-02-04T08:30:14.073Z,26.04
2023-02-04T08:31:14.185Z,26.05
2023-02-04T08:32:14.156Z,26.02
2023-02-04T08:33:14.252Z,26.03
2023-02-04T08:34:14.291Z,26.03
2023-02-04T08:35:14.338Z,26.02
2023-02-04T08:36:14.389Z,26.01
2023-02-04T08:37:14.496Z,26.00
2023-02-04T08:38:14.518Z,26.03
2023-02-04T08:39:14.583Z,26.03
2023-02-04T08:40:14.642Z,26.02
2023-02-04T08:41:14.679Z,26.01
2023-02-04T08:42:14.732Z,26.01
2023-02-04T08:43:14.750Z,26.02
2023-02-04T08:44:14.806Z,26.00
2023-02-04T08:45:14.823Z,25.99
2023-02-04T08:46:14.890Z,25.99
2023-02-04T08:47:14.941Z,25.99
2023-02-04T08:48:15.024Z,25.97
2023-02-04T08:49:15.055Z,25.96
2023-02-04T08:50:15.134Z,25.97
2023-02-04T08:51:15.160Z,26.00
2023-02-04T08:52:15.189Z,25.97
2023-02-04T08:53:15.234Z,25.97
2023-02-04T08:54:15.278Z,25.97
2023-02-04T08:55:15.294Z,25.95
2023-02-04T08:56:15.316Z,25.94
2023-02-04T08:57:15.357Z,25.94
2023-02-04T08:58:15.408Z,25.94
2023-02-04T08:59:15.454Z,25.93
2023-02-04T09:00:15.504Z,25.93
2023-02-04T09:01:15.603Z,25.91
2023-02-04T09:02:15.612Z,25.89
2023-02-04T09:03:15.597Z,25.88
2023-02-04T09:04:15.656Z,25.90
2023-02-04T09:05:15.687Z,25.89
2023-02-04T09:06:15.773Z,25.85
2023-02-04T09:07:15.812Z,25.86
2023-02-04T09:08:15.852Z,25.86
2023-02-04T09:09:15.955Z,25.86
2023-02-04T09:10:16.035Z,25.85
2023-02-04T09:11:16.010Z,25.87
2023-02-04T09:12:16.065Z,25.86
2023-02-04T09:13:16.122Z,25.84
2023-02-04T09:14:16.175Z,25.84
2023-02-04T09:15:16.193Z,25.84
2023-02-04T09:16:16.287Z,25.84
2023-02-04T09:17:16.284Z,25.85
2023-02-04T09:18:16.365Z,25.84
2023-02-04T09:19:16.384Z,25.84
2023-02-04T09:20:16.441Z,25.82
2023-02-04T09:21:16.469Z,25.83
2023-02-04T09:22:16.532Z,25.81
2023-02-04T09:23:16.586Z,25.82
2023-02-04T09:24:16.622Z,25.80
2023-02-04T09:25:16.676Z,25.82
2023-02-04T09:26:16.752Z,25.81
2023-02-04T09:27:16.771Z,25.81
2023-02-04T09:28:16.922Z,25.79
2023-02-04T09:29:16.919Z,25.77
2023-02-04T09:30:17.024Z,25.78
2023-02-04T09:31:17.169Z,25.79
2023-02-04T09:32:17.113Z,25.77
2023-02-04T09:33:17.197Z,25.77
2023-02-04T09:34:17.261Z,25.75
2023-02-04T09:35:17.291Z,25.75
2023-02-04T09:36:17.310Z,25.74
2023-02-04T09:37:17.370Z,25.74
2023-02-04T09:38:17.452Z,25.73
2023-02-04T09:39:17.504Z,25.69
2023-02-04T09:40:17.566Z,25.67
2023-02-04T09:41:17.653Z,25.67
2023-02-04T09:42:17.700Z,25.66
2023-02-04T09:43:17.761Z,25.64
2023-02-04T09:44:17.805Z,25.65
2023-02-04T09:45:17.872Z,25.62
2023-02-04T09:46:17.997Z,25.60
2023-02-04T09:47:18.005Z,25.59
2023-02-04T09:48:18.060Z,25.57
2023-02-04T09:49:18.112Z,25.56
2023-02-04T09:50:18.157Z,25.57
2023-02-04T09:51:18.272Z,25.56
2023-02-04T09:52:18.320Z,25.55
2023-02-04T09:53:18.365Z,25.56
2023-02-04T09:54:18.421Z,25.57
2023-02-04T09:55:18.456Z,25.53
2023-02-04T09:56:18.542Z,25.53
2023-02-04T09:57:18.586Z,25.50
2023-02-04T09:58:18.661Z,25.50
2023-02-04T09:59:18.720Z,25.50
2023-02-04T10:00:18.752Z,25.49
2023-02-04T10:01:18.890Z,25.47
2023-02-04T10:02:18.886Z,25.48
2023-02-04T10:03:19.031Z,25.48
2023-02-04T10:04:18.980Z,25.46
2023-02-04T10:05:20.137Z,25.49
2023-02-04T10:06:19.105Z,25.48
2023-02-04T10:07:19.175Z,25.45
2023-02-04T10:08:19.224Z,25.45
2023-02-04T10:09:19.267Z,25.43
2023-02-04T10:10:19.361Z,25.40
2023-02-04T10:11:19.422Z,25.39
2023-02-04T10:12:19.458Z,25.37
2023-02-04T10:13:19.544Z,25.38
2023-02-04T10:14:19.631Z,25.37
2023-02-04T10:15:19.654Z,25.33
2023-02-04T10:16:19.818Z,25.36
2023-02-04T10:17:19.748Z,25.35
2023-02-04T10:18:19.829Z,25.33
2023-02-04T10:19:19.875Z,25.32
2023-02-04T10:20:19.964Z,25.32
2023-02-04T10:21:19.998Z,25.30
2023-02-04T10:22:20.064Z,25.31
2023-02-04T10:23:20.132Z,25.27
2023-02-04T10:24:20.203Z,25.31
2023-02-04T10:25:20.273Z,25.30
2023-02-04T10:26:20.451Z,25.32
2023-02-04T10:27:20.371Z,25.32
2023-02-04T10:28:20.460Z,25.32
2023-02-04T10:48:21.660Z,25.09
2023-02-04T10:49:21.728Z,25.07
2023-02-04T10:50:21.807Z,25.07
2023-02-04T10:51:21.866Z,25.06
2023-02-04T10:52:21.889Z,25.06
2023-02-04T10:53:21.962Z,25.06
2023-02-04T10:54:22.022Z,25.03
2023-02-04T10:55:22.113Z,25.00
2023-02-04T10:56:22.125Z,24.99
2023-02-04T10:57:22.212Z,24.98
2023-02-04T10:58:22.296Z,24.98
2023-02-04T10:59:22.341Z,24.96
2023-02-04T11:00:22.383Z,24.94
2023-02-04T11:01:22.511Z,24.90
2023-02-04T11:02:22.487Z,24.87
2023-02-04T11:03:22.600Z,24.85
2023-02-04T11:04:22.655Z,24.83
2023-02-04T11:05:22.693Z,24.83
2023-02-04T11:06:22.763Z,24.82
2023-02-04T11:07:22.798Z,24.80
2023-02-04T11:08:22.912Z,24.81
2023-02-04T11:09:22.968Z,24.76
2023-02-04T11:10:22.975Z,24.77
2023-02-04T11:11:23.025Z,24.73
2023-02-04T11:12:23.112Z,24.73
2023-02-04T11:13:23.145Z,24.71
2023-02-04T11:14:23.197Z,24.66
2023-02-04T11:15:23.274Z,24.66
2023-02-04T11:16:23.485Z,24.63
2023-02-04T11:17:23.394Z,24.62
2023-02-04T11:18:23.419Z,24.64
2023-02-04T11:19:23.512Z,24.60
2023-02-04T11:20:23.529Z,24.59
2023-02-04T11:21:23.628Z,24.57
2023-02-04T11:22:23.697Z,24.53
2023-02-04T11:23:23.699Z,24.55
2023-02-04T11:24:23.761Z,24.54
2023-02-04T11:25:23.811Z,24.50
2023-02-04T11:26:23.883Z,24.51
2023-02-04T11:27:23.932Z,24.48
2023-02-04T11:28:23.986Z,24.49
2023-02-04T11:29:24.170Z,24.48
2023-02-04T11:30:24.160Z,24.45
2023-02-04T11:31:24.268Z,24.45
2023-02-04T11:32:24.206Z,24.41
2023-02-04T11:33:24.278Z,24.42
2023-02-04T11:34:24.342Z,24.42
2023-02-04T11:35:24.412Z,24.39
2023-02-04T11:36:24.450Z,24.38
2023-02-04T11:37:24.539Z,24.35
2023-02-04T11:38:24.586Z,24.31
2023-02-04T11:39:24.666Z,24.30
2023-02-04T11:40:24.704Z,24.30
2023-02-04T11:41:24.768Z,24.27
2023-02-04T11:42:24.846Z,24.27
2023-02-04T11:43:24.907Z,24.25
2023-02-04T11:44:24.965Z,24.21
2023-02-04T11:45:25.023Z,24.17
2023-02-04T11:46:25.092Z,24.16
2023-02-04T11:47:25.116Z,24.15
2023-02-04T11:48:25.135Z,24.14
2023-02-04T11:49:25.189Z,24.12
2023-02-04T11:50:25.210Z,24.11
2023-02-04T11:51:25.250Z,24.10
2023-02-04T11:52:25.329Z,24.06
2023-02-04T11:53:25.376Z,24.05
2023-02-04T11:54:25.438Z,24.02
2023-02-04T11:55:25.489Z,24.02
2023-02-04T11:56:25.523Z,24.01
2023-02-04T11:57:25.535Z,23.96
2023-02-04T11:58:25.575Z,23.93
2023-02-04T11:59:25.595Z,23.91
2023-02-04T12:00:25.655Z,23.90
2023-02-04T12:01:25.660Z,23.89
2023-02-04T12:02:25.773Z,23.88
2023-02-04T12:03:25.792Z,23.88
2023-02-04T12:04:25.822Z,23.86
2023-02-04T12:05:25.789Z,23.83
2023-02-04T12:06:25.875Z,23.84
2023-02-04T12:07:25.891Z,23.84
2023-02-04T12:08:25.898Z,23.84
2023-02-04T12:09:25.921Z,23.80
2023-02-04T12:10:25.969Z,23.80
2023-02-04T12:11:25.966Z,23.77
2023-02-04T12:12:26.016Z,23.79
2023-02-04T12:13:26.055Z,23.76
2023-02-04T12:14:26.099Z,23.75
2023-02-04T12:15:26.089Z,23.74
2023-02-04T12:16:26.193Z,23.74
2023-02-04T12:17:26.117Z,23.73
2023-02-04T12:18:26.113Z,23.74
2023-02-04T12:19:27.651Z,23.72
2023-02-04T12:20:26.210Z,23.71
2023-02-04T12:21:26.249Z,23.71
2023-02-04T12:22:26.282Z,23.69
2023-02-04T12:23:26.286Z,23.67
2023-02-04T12:24:26.338Z,23.66
2023-02-04T12:25:26.339Z,23.64
2023-02-04T12:26:26.366Z,23.65
2023-02-04T12:27:26.412Z,23.62
2023-02-04T12:28:26.421Z,23.62
2023-02-04T12:29:26.458Z,23.59
2023-02-04T12:30:26.473Z,23.58
2023-02-04T12:31:26.548Z,23.57
2023-02-04T12:32:26.522Z,23.54
2023-02-04T12:33:26.532Z,23.53
2023-02-04T12:34:26.542Z,23.53
2023-02-04T12:35:26.534Z,23.53
2023-02-04T12:36:26.546Z,23.52
2023-02-04T12:37:26.621Z,23.51
2023-02-04T12:38:26.549Z,23.51
2023-02-04T12:39:26.508Z,23.48
2023-02-04T12:40:26.542Z,23.49
2023-02-04T12:41:26.539Z,23.47
2023-02-04T12:42:26.537Z,23.46
2023-02-04T12:43:28.276Z,23.44
2023-02-04T12:44:26.557Z,23.45
2023-02-04T12:45:26.523Z,23.44
2023-02-04T12:46:26.549Z,23.40
2023-02-04T12:47:26.545Z,23.39
2023-02-04T12:48:26.577Z,23.39
2023-02-04T12:49:26.514Z,23.37
2023-02-04T12:50:26.527Z,23.34
2023-02-04T12:51:26.496Z,23.34
2023-02-04T12:52:26.493Z,23.31
2023-02-04T12:53:26.497Z,23.29
2023-02-04T12:54:26.476Z,23.28
2023-02-04T12:55:26.495Z,23.27
2023-02-04T12:56:26.466Z,23.25
2023-02-04T12:57:26.479Z,23.22
2023-02-04T12:58:26.490Z,23.24
2023-02-04T13:07:26.500Z,23.06
2023-02-04T13:08:26.473Z,23.06
2023-02-04T13:09:26.508Z,23.02
2023-02-04T13:10:26.487Z,23.03
2023-02-04T13:11:26.515Z,23.04
2023-02-04T13:12:26.527Z,23.01
2023-02-04T13:13:26.491Z,23.00
2023-02-04T13:14:26.504Z,22.99
2023-02-04T13:15:26.491Z,22.96
2023-02-04T13:16:26.521Z,22.95
2023-02-04T13:17:26.465Z,22.95
2023-02-04T13:18:26.464Z,22.93
2023-02-04T13:19:26.481Z,22.91
2023-02-04T13:20:26.487Z,22.91
2023-02-04T13:21:26.475Z,22.93
2023-02-04T13:22:26.471Z,22.90
2023-02-04T13:23:26.561Z,22.88
2023-02-04T13:24:26.458Z,22.88
2023-02-04T13:25:26.472Z,22.86
2023-02-04T13:26:26.464Z,22.87
2023-02-04T13:27:26.477Z,22.86
2023-02-04T13:28:26.544Z,22.83
2023-02-04T13:29:26.457Z,22.83
2023-02-04T13:30:26.467Z,22.82
2023-02-04T13:31:26.483Z,22.80
2023-02-04T13:32:26.427Z,22.79
2023-02-04T13:33:26.468Z,22.79
2023-02-04T13:34:26.459Z,22.74
2023-02-04T13:35:26.783Z,22.70
2023-02-04T13:36:26.800Z,22.72
2023-02-04T13:37:26.539Z,22.71
2023-02-04T13:38:26.582Z,22.70
2023-02-04T13:39:26.628Z,22.68
2023-02-04T13:40:26.599Z,22.67
2023-02-04T13:41:26.602Z,22.65
2023-02-04T13:42:26.607Z,22.64
2023-02-04T13:43:26.596Z,22.64
2023-02-04T13:44:26.627Z,22.63
2023-02-04T13:45:26.648Z,22.61
2023-02-04T13:46:26.567Z,22.61
2023-02-04T13:47:26.652Z,22.59
2023-02-04T13:48:26.622Z,22.59
2023-02-04T13:49:26.650Z,22.59
2023-02-04T13:50:26.648Z,22.56
2023-02-04T13:51:26.595Z,22.55
2023-02-04T13:52:26.600Z,22.55
2023-02-04T13:53:26.651Z,22.54
2023-02-04T13:54:26.638Z,22.53
2023-02-04T13:55:26.628Z,22.54
2023-02-04T13:56:26.683Z,22.52
2023-02-04T13:57:26.650Z,22.49
2023-02-04T13:58:26.689Z,22.47
2023-02-04T13:59:26.650Z,22.46
2023-02-04T14:00:26.664Z,22.46
2023-02-04T14:01:26.675Z,22.42
2023-02-04T14:02:26.771Z,22.40
2023-02-04T14:03:26.696Z,22.39
2023-02-04T14:04:26.703Z,22.39
2023-02-04T14:05:26.690Z,22.38
2023-02-04T14:06:26.713Z,22.36
2023-02-04T14:07:26.719Z,22.37
2023-02-04T14:08:26.730Z,22.37
2023-02-04T14:09:26.734Z,22.36
2023-02-04T14:10:26.829Z,22.36
2023-02-04T14:11:26.745Z,22.35
2023-02-04T14:12:26.752Z,22.33
2023-02-04T14:13:26.884Z,22.33
2023-02-04T14:14:26.755Z,22.30
2023-02-04T14:15:26.792Z,22.28
2023-02-04T14:16:26.843Z,22.29
2023-02-04T14:17:26.777Z,22.27
2023-02-04T14:18:26.781Z,22.28
2023-02-04T14:19:26.831Z,22.27
2023-02-04T14:20:26.833Z,22.27
2023-02-04T14:21:26.842Z,22.27
2023-02-04T14:22:26.822Z,22.27
2023-02-04T14:23:26.862Z,22.26
2023-02-04T14:24:26.850Z,22.23
2023-02-04T14:25:26.866Z,22.23
2023-02-04T14:26:26.885Z,22.22
2023-02-04T14:27:26.874Z,22.21
2023-02-04T14:28:26.927Z,22.22
2023-02-04T14:29:26.897Z,22.19
2023-02-04T14:30:26.963Z,22.18
2023-02-04T14:31:26.959Z,22.19
2023-02-04T14:32:26.934Z,22.17
2023-02-04T14:33:26.952Z,22.16
2023-02-04T14:34:26.972Z,22.16
2023-02-04T14:35:26.954Z,22.13
2023-02-04T14:36:26.988Z,22.13
2023-02-04T14:37:26.969Z,22.13
2023-02-04T14:38:26.990Z,22.11
2023-02-04T14:39:27.001Z,22.11
2023-02-04T14:40:26.998Z,22.09
2023-02-04T14:41:27.018Z,22.07
2023-02-04T14:42:27.039Z,22.07
2023-02-04T14:43:27.068Z,22.08
2023-02-04T14:44:27.072Z,22.08
2023-02-04T14:45:27.729Z,22.07
2023-02-04T14:46:27.133Z,22.06
2023-02-04T14:47:27.104Z,22.03
2023-02-04T14:48:27.125Z,22.03
2023-02-04T14:49:27.126Z,22.01
2023-02-04T14:50:27.147Z,22.00
2023-02-04T14:51:27.145Z,21.99
2023-02-04T14:52:27.187Z,21.98
2023-02-04T14:53:27.194Z,21.99
2023-02-04T14:54:27.199Z,21.99
2023-02-04T14:55:27.212Z,21.98
2023-02-04T14:56:27.228Z,21.98
2023-02-04T14:57:27.296Z,21.96
2023-02-04T14:58:28.042Z,21.96
2023-02-04T14:59:27.302Z,21.94
2023-02-04T15:00:27.372Z,21.93
2023-02-04T15:01:27.458Z,21.89
2023-02-04T15:02:27.373Z,21.89
2023-02-04T15:03:27.374Z,21.90
2023-02-04T15:04:27.385Z,21.88
2023-02-04T15:05:27.398Z,21.88
2023-02-04T15:06:27.410Z,21.87
2023-02-04T15:07:27.406Z,21.87
2023-02-04T15:08:27.416Z,21.87
2023-02-04T15:20:27.542Z,21.79
2023-02-04T15:27:27.581Z,21.82
2023-02-04T15:38:27.694Z,21.85
2023-02-04T15:39:27.699Z,21.84
2023-02-04T15:40:27.713Z,21.85
2023-02-04T15:41:27.792Z,21.85
2023-02-04T15:42:27.744Z,21.83
2023-02-04T15:43:27.752Z,21.86
2023-02-04T15:44:27.757Z,21.84
2023-02-04T15:45:27.782Z,21.85
2023-02-04T15:46:27.856Z,21.87
2023-02-04T15:47:27.788Z,21.87
2023-02-04T15:48:27.800Z,21.89
2023-02-04T15:49:27.854Z,21.89
2023-02-04T15:50:27.838Z,21.88
2023-02-04T15:51:27.882Z,21.89
2023-02-04T15:52:29.311Z,21.90
2023-02-04T15:53:27.886Z,21.90
2023-02-04T15:54:27.906Z,21.91
2023-02-04T15:55:27.923Z,21.90
2023-02-04T15:56:27.970Z,21.91
2023-02-04T15:57:27.968Z,21.91
2023-02-04T15:58:27.987Z,21.90
2023-02-04T15:59:28.011Z,21.91
2023-02-04T16:00:28.013Z,21.92
2023-02-04T16:01:28.057Z,21.93
2023-02-04T16:02:28.121Z,21.92
2023-02-04T16:03:28.077Z,21.93
2023-02-04T16:04:28.099Z,21.92
2023-02-04T16:05:28.104Z,21.94
2023-02-04T16:06:28.131Z,21.91
2023-02-04T16:07:28.138Z,21.93
2023-02-04T16:08:28.155Z,21.91
2023-02-04T16:09:28.184Z,21.92
2023-02-04T16:10:28.218Z,21.91
2023-02-04T16:11:28.217Z,21.93
2023-02-04T16:12:28.246Z,21.91
2023-02-04T16:13:28.265Z,21.92
2023-02-04T16:14:28.265Z,21.94
2023-02-04T16:15:28.269Z,21.92
2023-02-04T16:16:28.276Z,21.93
2023-02-04T16:17:28.319Z,21.93
2023-02-04T16:18:28.352Z,21.92
2023-02-04T16:19:28.353Z,21.93
2023-02-04T16:20:28.325Z,21.92
2023-02-04T16:21:28.368Z,21.92
2023-02-04T16:22:28.386Z,21.93
2023-02-04T16:23:28.389Z,21.92
2023-02-04T16:24:28.385Z,21.93
2023-02-04T16:25:28.407Z,21.93
2023-02-04T16:26:28.391Z,21.94
2023-02-04T16:27:28.436Z,21.96
2023-02-04T16:28:28.463Z,21.94
2023-02-04T16:29:28.482Z,21.98
2023-02-04T16:30:28.490Z,21.97
2023-02-04T16:31:28.565Z,21.95
2023-02-04T16:32:28.493Z,21.97
2023-02-04T16:33:28.544Z,21.98
2023-02-04T16:34:28.555Z,21.96
2023-02-04T16:35:28.569Z,21.97
2023-02-04T16:36:28.572Z,21.95
2023-02-04T16:37:28.570Z,21.96
2023-02-04T16:38:28.586Z,21.96
2023-02-04T16:39:28.637Z,21.96
2023-02-04T16:40:28.618Z,21.97
2023-02-04T16:41:28.649Z,21.98
2023-02-04T16:42:28.651Z,21.98
2023-02-04T16:43:28.651Z,21.98
2023-02-04T16:44:28.688Z,21.99
2023-02-04T16:45:28.682Z,21.99
2023-02-04T16:46:28.740Z,21.99
2023-02-04T16:47:28.714Z,22.00
2023-02-04T16:48:28.707Z,22.00
2023-02-04T16:49:28.716Z,21.99
2023-02-04T16:50:28.766Z,21.99
2023-02-04T16:51:28.748Z,21.98
2023-02-04T16:52:28.725Z,22.00
2023-02-04T16:53:28.769Z,21.98
2023-02-04T16:54:28.790Z,21.97
2023-02-04T16:55:28.799Z,22.00
2023-02-04T16:56:28.805Z,21.98
2023-02-04T16:57:28.781Z,22.00
2023-02-04T16:58:28.788Z,21.99
2023-02-04T16:59:28.828Z,22.00
2023-02-04T17:00:28.799Z,22.01
2023-02-04T17:01:28.878Z,21.99
2023-02-04T17:02:28.906Z,21.99
2023-02-04T17:03:28.817Z,22.01
2023-02-04T17:04:28.869Z,21.99
2023-02-04T17:05:28.817Z,21.99
2023-02-04T17:06:28.840Z,22.00
2023-02-04T17:07:28.879Z,21.99
2023-02-04T17:08:28.849Z,21.99
2023-02-04T17:09:28.898Z,22.00
2023-02-04T17:10:28.869Z,21.99
2023-02-04T17:11:28.902Z,22.02
2023-02-04T17:12:28.909Z,22.00
2023-02-04T17:13:28.947Z,22.01
2023-02-04T17:14:28.920Z,22.01
2023-02-04T17:15:29.007Z,22.00
2023-02-04T17:16:29.051Z,22.01
2023-02-04T17:17:28.962Z,22.00
2023-02-04T17:18:28.957Z,22.00
2023-02-04T17:19:28.933Z,22.02
2023-02-04T17:20:28.980Z,22.01
2023-02-04T17:21:28.982Z,22.04
2023-02-04T17:22:28.945Z,22.03
2023-02-04T17:23:29.766Z,22.04
2023-02-04T17:24:28.963Z,22.02
2023-02-04T17:25:29.003Z,22.05
2023-02-04T17:26:29.764Z,22.04
2023-02-04T17:27:28.973Z,22.06
2023-02-04T17:40:29.166Z,22.12
2023-02-04T17:41:29.777Z,22.11
2023-02-04T17:42:29.180Z,22.11
2023-02-04T17:43:29.198Z,22.13
2023-02-04T17:44:29.214Z,22.13
2023-02-04T17:45:29.242Z,22.11
2023-02-04T17:47:29.253Z,22.14
2023-02-04T17:48:29.257Z,22.13
2023-02-04T17:49:29.266Z,22.12
2023-02-04T17:50:29.266Z,22.10
2023-02-04T17:51:29.284Z,22.10
2023-02-04T17:52:29.294Z,22.11
2023-02-04T17:53:29.288Z,22.12
2023-02-04T17:54:29.314Z,22.10
2023-02-04T17:55:29.317Z,22.11
2023-02-04T17:56:29.330Z,22.11
2023-02-04T17:57:29.318Z,22.12
2023-02-04T17:58:29.345Z,22.12
2023-02-04T17:59:29.342Z,22.11
2023-02-04T18:00:29.337Z,22.13
2023-02-04T18:01:29.401Z,22.12
2023-02-04T18:02:29.389Z,22.12
2023-02-04T18:03:29.371Z,22.12
2023-02-04T18:04:29.390Z,22.13
2023-02-04T18:05:29.396Z,22.12
2023-02-04T18:06:29.397Z,22.14
2023-02-04T18:07:29.406Z,22.11
2023-02-04T18:08:29.415Z,22.12
2023-02-04T18:09:29.406Z,22.12
2023-02-04T18:10:29.463Z,22.12
2023-02-04T18:11:29.461Z,22.13
2023-02-04T18:12:29.418Z,22.14
2023-02-04T18:13:29.458Z,22.12
2023-02-04T18:14:29.467Z,22.13
2023-02-04T18:28:29.474Z,22.08
2023-02-04T18:29:29.470Z,22.08
2023-02-04T18:30:29.512Z,22.05
2023-02-04T18:31:29.525Z,22.03
2023-02-04T18:32:29.506Z,22.02
2023-02-04T18:33:29.529Z,22.02
2023-02-04T18:34:29.570Z,22.02
2023-02-04T18:35:29.540Z,22.02
2023-02-04T18:36:29.542Z,22.01
2023-02-04T18:37:29.559Z,22.02
2023-02-04T18:38:29.555Z,22.03
2023-02-04T18:39:29.601Z,22.04
2023-02-04T18:40:29.580Z,22.03
2023-02-04T18:41:29.590Z,22.02
2023-02-04T18:42:29.551Z,22.03
2023-02-04T18:43:29.566Z,22.02